sensor_id;sensor_type;location;lat;lon;timestamp;P1;durP1;ratioP1;P2;durP2;ratioP2
23628;SDS011;11991;57.150;-2.134;2023-04-03T00:01:12;1.25;;;0.77;;
23628;SDS011;11991;57.150;-2.134;2023-04-03T00:03:39;1.55;;;0.80;;
23628;SDS011;11991;57.150;-2.134;2023-04-03T00:06:08;0.95;;;0.77;;
23628;SDS011;11991;57.150;-2.134;2023-04-03T00:08:37;2.05;;;0.88;;
23628;SDS011;11991;57.150;-2.134;2023-04-03T00:11:06;1.02;;;0.70;;
23628;SDS011;11991;57.150;-2.134;2023-04-03T00:13:33;1.10;;;0.73;;
23628;SDS011;11991;57.150;-2.134;2023-04-03T00:16:00;0.60;;;0.60;;
23628;SDS011;11991;57.150;-2.134;2023-04-03T00:18:29;1.95;;;0.80;;
23628;SDS011;11991;57.150;-2.134;2023-04-03T00:20:56;0.60;;;0.60;;
23628;SDS011;11991;57.150;-2.134;2023-04-03T00:23:24;0.60;;;0.50;;
23628;SDS011;11991;57.150;-2.134;2023-04-03T00:25:51;1.13;;;0.70;;
23628;SDS011;11991;57.150;-2.134;2023-04-03T00:28:19;4.20;;;1.38;;
23628;SDS011;11991;57.150;-2.134;2023-04-03T00:30:50;1.10;;;0.60;;
23628;SDS011;11991;57.150;-2.134;2023-04-03T00:33:18;1.80;;;0.57;;
23628;SDS011;11991;57.150;-2.134;2023-04-03T00:35:48;1.35;;;0.80;;
23628;SDS011;11991;57.150;-2.134;2023-04-03T00:38:16;3.03;;;0.60;;
23628;SDS011;11991;57.150;-2.134;2023-04-03T00:40:45;2.92;;;0.90;;
23628;SDS011;11991;57.150;-2.134;2023-04-03T00:43:15;3.45;;;0.90;;
23628;SDS011;11991;57.150;-2.134;2023-04-03T00:45:48;0.95;;;0.63;;
23628;SDS011;11991;57.150;-2.134;2023-04-03T00:48:20;1.00;;;0.70;;
23628;SDS011;11991;57.150;-2.134;2023-04-03T00:50:52;1.65;;;0.90;;
23628;SDS011;11991;57.150;-2.134;2023-04-03T00:53:24;1.33;;;0.60;;
23628;SDS011;11991;57.150;-2.134;2023-04-03T00:55:55;1.00;;;0.70;;
23628;SDS011;11991;57.150;-2.134;2023-04-03T00:58:26;1.03;;;0.70;;
23628;SDS011;11991;57.150;-2.134;2023-04-03T01:01:00;1.47;;;0.90;;
23628;SDS011;11991;57.150;-2.134;2023-04-03T01:03:31;2.03;;;0.90;;
23628;SDS011;11991;57.150;-2.134;2023-04-03T01:06:01;2.58;;;0.90;;
23628;SDS011;11991;57.150;-2.134;2023-04-03T01:08:29;1.50;;;0.80;;
23628;SDS011;11991;57.150;-2.134;2023-04-03T01:10:57;2.00;;;1.17;;
23628;SDS011;11991;57.150;-2.134;2023-04-03T01:13:27;1.33;;;0.80;;
23628;SDS011;11991;57.150;-2.134;2023-04-03T01:15:56;2.65;;;1.13;;
23628;SDS011;11991;57.150;-2.134;2023-04-03T01:18:27;2.13;;;0.77;;
23628;SDS011;11991;57.150;-2.134;2023-04-03T01:21:04;1.53;;;0.70;;
23628;SDS011;11991;57.150;-2.134;2023-04-03T01:26:24;1.08;;;0.68;;
23628;SDS011;11991;57.150;-2.134;2023-04-03T01:28:53;1.25;;;1.15;;
23628;SDS011;11991;57.150;-2.134;2023-04-03T01:31:25;1.20;;;0.80;;
23628;SDS011;11991;57.150;-2.134;2023-04-03T01:33:55;0.70;;;0.70;;
23628;SDS011;11991;57.150;-2.134;2023-04-03T01:36:24;2.07;;;0.80;;
23628;SDS011;11991;57.150;-2.134;2023-04-03T01:38:54;2.05;;;1.35;;
23628;SDS011;11991;57.150;-2.134;2023-04-03T01:41:22;1.63;;;1.00;;
23628;SDS011;11991;57.150;-2.134;2023-04-03T01:43:52;2.97;;;0.83;;
23628;SDS011;11991;57.150;-2.134;2023-04-03T01:46:20;1.27;;;0.80;;
23628;SDS011;11991;57.150;-2.134;2023-04-03T01:48:47;2.20;;;0.87;;
23628;SDS011;11991;57.150;-2.134;2023-04-03T01:51:15;0.80;;;0.63;;
23628;SDS011;11991;57.150;-2.134;2023-04-03T01:53:43;1.90;;;0.93;;
23628;SDS011;11991;57.150;-2.134;2023-04-03T01:56:10;1.23;;;0.70;;
23628;SDS011;11991;57.150;-2.134;2023-04-03T01:58:38;0.93;;;0.70;;
23628;SDS011;11991;57.150;-2.134;2023-04-03T02:01:05;2.00;;;0.60;;
23628;SDS011;11991;57.150;-2.134;2023-04-03T02:03:33;1.47;;;0.90;;
23628;SDS011;11991;57.150;-2.134;2023-04-03T02:06:00;0.88;;;0.70;;
23628;SDS011;11991;57.150;-2.134;2023-04-03T02:08:27;3.03;;;1.13;;
23628;SDS011;11991;57.150;-2.134;2023-04-03T02:10:54;1.03;;;0.73;;
23628;SDS011;11991;57.150;-2.134;2023-04-03T02:13:22;1.90;;;0.80;;
23628;SDS011;11991;57.150;-2.134;2023-04-03T02:15:49;1.70;;;0.77;;
23628;SDS011;11991;57.150;-2.134;2023-04-03T02:18:16;3.53;;;0.80;;
23628;SDS011;11991;57.150;-2.134;2023-04-03T02:20:44;1.87;;;0.87;;
23628;SDS011;11991;57.150;-2.134;2023-04-03T02:23:12;0.90;;;0.70;;
23628;SDS011;11991;57.150;-2.134;2023-04-03T02:25:40;2.50;;;1.10;;
23628;SDS011;11991;57.150;-2.134;2023-04-03T02:28:07;0.50;;;0.50;;
23628;SDS011;11991;57.150;-2.134;2023-04-03T02:30:34;1.67;;;0.70;;
23628;SDS011;11991;57.150;-2.134;2023-04-03T02:33:03;0.87;;;0.70;;
23628;SDS011;11991;57.150;-2.134;2023-04-03T02:35:30;4.45;;;1.10;;
23628;SDS011;11991;57.150;-2.134;2023-04-03T02:37:58;1.10;;;0.80;;
23628;SDS011;11991;57.150;-2.134;2023-04-03T02:40:25;2.38;;;1.05;;
23628;SDS011;11991;57.150;-2.134;2023-04-03T02:42:53;2.65;;;0.80;;
23628;SDS011;11991;57.150;-2.134;2023-04-03T02:45:22;1.20;;;0.80;;
23628;SDS011;11991;57.150;-2.134;2023-04-03T02:47:49;1.92;;;0.80;;
23628;SDS011;11991;57.150;-2.134;2023-04-03T02:50:16;1.10;;;0.75;;
23628;SDS011;11991;57.150;-2.134;2023-04-03T02:52:43;0.65;;;0.50;;
23628;SDS011;11991;57.150;-2.134;2023-04-03T02:55:13;3.80;;;1.00;;
23628;SDS011;11991;57.150;-2.134;2023-04-03T02:57:44;2.93;;;1.00;;
23628;SDS011;11991;57.150;-2.134;2023-04-03T03:00:12;2.60;;;0.95;;
23628;SDS011;11991;57.150;-2.134;2023-04-03T03:02:40;0.63;;;0.53;;
23628;SDS011;11991;57.150;-2.134;2023-04-03T03:05:08;2.75;;;0.90;;
23628;SDS011;11991;57.150;-2.134;2023-04-03T03:07:35;2.63;;;0.73;;
23628;SDS011;11991;57.150;-2.134;2023-04-03T03:10:02;1.60;;;0.70;;
23628;SDS011;11991;57.150;-2.134;2023-04-03T03:12:30;1.48;;;0.80;;
23628;SDS011;11991;57.150;-2.134;2023-04-03T03:14:59;3.03;;;1.30;;
23628;SDS011;11991;57.150;-2.134;2023-04-03T03:17:26;1.15;;;0.63;;
23628;SDS011;11991;57.150;-2.134;2023-04-03T03:19:53;1.77;;;1.00;;
23628;SDS011;11991;57.150;-2.134;2023-04-03T03:22:20;2.07;;;0.90;;
23628;SDS011;11991;57.150;-2.134;2023-04-03T03:24:48;2.35;;;0.70;;
23628;SDS011;11991;57.150;-2.134;2023-04-03T03:27:15;1.90;;;0.85;;
23628;SDS011;11991;57.150;-2.134;2023-04-03T03:29:42;0.75;;;0.52;;
23628;SDS011;11991;57.150;-2.134;2023-04-03T03:32:11;2.03;;;0.80;;
23628;SDS011;11991;57.150;-2.134;2023-04-03T03:34:38;3.45;;;0.90;;
23628;SDS011;11991;57.150;-2.134;2023-04-03T03:37:05;2.90;;;0.93;;
23628;SDS011;11991;57.150;-2.134;2023-04-03T03:39:33;2.17;;;0.70;;
23628;SDS011;11991;57.150;-2.134;2023-04-03T03:42:00;4.13;;;0.98;;
23628;SDS011;11991;57.150;-2.134;2023-04-03T03:44:27;0.93;;;0.73;;
23628;SDS011;11991;57.150;-2.134;2023-04-03T03:46:56;1.50;;;0.70;;
23628;SDS011;11991;57.150;-2.134;2023-04-03T03:49:23;1.38;;;0.70;;
23628;SDS011;11991;57.150;-2.134;2023-04-03T03:51:50;1.10;;;0.60;;
23628;SDS011;11991;57.150;-2.134;2023-04-03T03:54:18;3.88;;;0.95;;
23628;SDS011;11991;57.150;-2.134;2023-04-03T03:56:46;1.73;;;0.77;;
23628;SDS011;11991;57.150;-2.134;2023-04-03T03:59:13;0.57;;;0.50;;
23628;SDS011;11991;57.150;-2.134;2023-04-03T04:01:41;2.03;;;0.50;;
23628;SDS011;11991;57.150;-2.134;2023-04-03T04:04:08;1.70;;;0.80;;
23628;SDS011;11991;57.150;-2.134;2023-04-03T04:06:36;1.25;;;0.80;;
23628;SDS011;11991;57.150;-2.134;2023-04-03T04:09:06;1.73;;;0.70;;
23628;SDS011;11991;57.150;-2.134;2023-04-03T04:11:33;1.50;;;0.80;;
23628;SDS011;11991;57.150;-2.134;2023-04-03T04:14:01;1.85;;;0.80;;
23628;SDS011;11991;57.150;-2.134;2023-04-03T04:16:29;1.25;;;0.60;;
23628;SDS011;11991;57.150;-2.134;2023-04-03T04:19:02;1.65;;;0.95;;
23628;SDS011;11991;57.150;-2.134;2023-04-03T04:21:31;2.33;;;1.17;;
23628;SDS011;11991;57.150;-2.134;2023-04-03T04:23:58;1.50;;;0.93;;
23628;SDS011;11991;57.150;-2.134;2023-04-03T04:26:26;1.30;;;1.10;;
23628;SDS011;11991;57.150;-2.134;2023-04-03T04:28:53;1.13;;;0.90;;
23628;SDS011;11991;57.150;-2.134;2023-04-03T04:31:21;2.53;;;0.80;;
23628;SDS011;11991;57.150;-2.134;2023-04-03T04:33:48;0.73;;;0.70;;
23628;SDS011;11991;57.150;-2.134;2023-04-03T04:36:16;1.13;;;0.70;;
23628;SDS011;11991;57.150;-2.134;2023-04-03T04:38:45;2.80;;;0.97;;
23628;SDS011;11991;57.150;-2.134;2023-04-03T04:41:13;1.77;;;1.05;;
23628;SDS011;11991;57.150;-2.134;2023-04-03T04:43:41;2.22;;;1.15;;
23628;SDS011;11991;57.150;-2.134;2023-04-03T04:46:10;1.13;;;0.80;;
23628;SDS011;11991;57.150;-2.134;2023-04-03T04:48:45;1.90;;;0.80;;
23628;SDS011;11991;57.150;-2.134;2023-04-03T04:51:13;1.48;;;1.08;;
23628;SDS011;11991;57.150;-2.134;2023-04-03T04:53:41;2.35;;;0.77;;
23628;SDS011;11991;57.150;-2.134;2023-04-03T04:56:11;1.58;;;0.98;;
23628;SDS011;11991;57.150;-2.134;2023-04-03T04:58:39;1.92;;;1.10;;
23628;SDS011;11991;57.150;-2.134;2023-04-03T05:01:08;1.85;;;1.00;;
23628;SDS011;11991;57.150;-2.134;2023-04-03T05:03:56;2.78;;;1.08;;
23628;SDS011;11991;57.150;-2.134;2023-04-03T05:06:24;1.23;;;0.98;;
23628;SDS011;11991;57.150;-2.134;2023-04-03T05:08:54;2.50;;;1.00;;
23628;SDS011;11991;57.150;-2.134;2023-04-03T05:11:22;1.67;;;0.85;;
23628;SDS011;11991;57.150;-2.134;2023-04-03T05:13:51;2.53;;;0.95;;
23628;SDS011;11991;57.150;-2.134;2023-04-03T05:16:20;1.42;;;0.80;;
23628;SDS011;11991;57.150;-2.134;2023-04-03T05:18:48;1.73;;;1.20;;
23628;SDS011;11991;57.150;-2.134;2023-04-03T05:21:18;1.53;;;1.20;;
23628;SDS011;11991;57.150;-2.134;2023-04-03T05:23:47;1.45;;;0.90;;
23628;SDS011;11991;57.150;-2.134;2023-04-03T05:26:14;2.25;;;1.02;;
23628;SDS011;11991;57.150;-2.134;2023-04-03T05:28:43;1.48;;;1.08;;
23628;SDS011;11991;57.150;-2.134;2023-04-03T05:31:10;1.55;;;0.93;;
23628;SDS011;11991;57.150;-2.134;2023-04-03T05:33:37;2.67;;;1.17;;
23628;SDS011;11991;57.150;-2.134;2023-04-03T05:36:08;1.70;;;0.90;;
23628;SDS011;11991;57.150;-2.134;2023-04-03T05:38:41;3.33;;;1.20;;
23628;SDS011;11991;57.150;-2.134;2023-04-03T05:41:10;1.40;;;0.97;;
23628;SDS011;11991;57.150;-2.134;2023-04-03T05:43:38;2.25;;;1.00;;
23628;SDS011;11991;57.150;-2.134;2023-04-03T05:46:15;1.55;;;0.90;;
23628;SDS011;11991;57.150;-2.134;2023-04-03T05:48:47;3.72;;;1.20;;
23628;SDS011;11991;57.150;-2.134;2023-04-03T05:51:19;2.35;;;1.00;;
23628;SDS011;11991;57.150;-2.134;2023-04-03T05:53:52;1.00;;;0.90;;
23628;SDS011;11991;57.150;-2.134;2023-04-03T05:56:27;1.73;;;1.10;;
23628;SDS011;11991;57.150;-2.134;2023-04-03T05:58:54;0.75;;;0.70;;
23628;SDS011;11991;57.150;-2.134;2023-04-03T06:01:22;3.70;;;1.13;;
23628;SDS011;11991;57.150;-2.134;2023-04-03T06:03:50;1.08;;;0.80;;
23628;SDS011;11991;57.150;-2.134;2023-04-03T06:06:17;1.10;;;0.93;;
23628;SDS011;11991;57.150;-2.134;2023-04-03T06:08:45;1.77;;;1.20;;
23628;SDS011;11991;57.150;-2.134;2023-04-03T06:11:12;1.60;;;1.00;;
23628;SDS011;11991;57.150;-2.134;2023-04-03T06:13:39;1.15;;;0.82;;
23628;SDS011;11991;57.150;-2.134;2023-04-03T06:16:08;1.52;;;1.10;;
23628;SDS011;11991;57.150;-2.134;2023-04-03T06:18:41;1.97;;;0.87;;
23628;SDS011;11991;57.150;-2.134;2023-04-03T06:21:09;2.15;;;1.25;;
23628;SDS011;11991;57.150;-2.134;2023-04-03T06:23:37;2.75;;;1.08;;
23628;SDS011;11991;57.150;-2.134;2023-04-03T06:26:04;1.70;;;1.10;;
23628;SDS011;11991;57.150;-2.134;2023-04-03T06:28:32;1.65;;;1.20;;
23628;SDS011;11991;57.150;-2.134;2023-04-03T06:30:59;1.33;;;0.90;;
23628;SDS011;11991;57.150;-2.134;2023-04-03T06:33:26;1.60;;;1.10;;
23628;SDS011;11991;57.150;-2.134;2023-04-03T06:35:57;2.20;;;1.25;;
23628;SDS011;11991;57.150;-2.134;2023-04-03T06:38:25;2.30;;;1.58;;
23628;SDS011;11991;57.150;-2.134;2023-04-03T06:40:52;1.33;;;1.02;;
23628;SDS011;11991;57.150;-2.134;2023-04-03T06:43:20;1.45;;;0.98;;
23628;SDS011;11991;57.150;-2.134;2023-04-03T06:45:49;2.72;;;1.10;;
23628;SDS011;11991;57.150;-2.134;2023-04-03T06:48:17;1.75;;;1.05;;
23628;SDS011;11991;57.150;-2.134;2023-04-03T06:50:44;2.40;;;1.10;;
23628;SDS011;11991;57.150;-2.134;2023-04-03T06:53:11;1.73;;;0.98;;
23628;SDS011;11991;57.150;-2.134;2023-04-03T06:55:39;1.17;;;0.95;;
23628;SDS011;11991;57.150;-2.134;2023-04-03T06:58:06;2.05;;;1.30;;
23628;SDS011;11991;57.150;-2.134;2023-04-03T07:00:34;5.50;;;1.65;;
23628;SDS011;11991;57.150;-2.134;2023-04-03T07:03:01;1.98;;;1.48;;
23628;SDS011;11991;57.150;-2.134;2023-04-03T07:05:29;2.90;;;1.10;;
23628;SDS011;11991;57.150;-2.134;2023-04-03T07:07:56;3.40;;;1.85;;
23628;SDS011;11991;57.150;-2.134;2023-04-03T07:10:24;2.78;;;1.00;;
23628;SDS011;11991;57.150;-2.134;2023-04-03T07:12:51;1.85;;;1.27;;
23628;SDS011;11991;57.150;-2.134;2023-04-03T07:15:19;2.53;;;1.20;;
23628;SDS011;11991;57.150;-2.134;2023-04-03T07:17:46;2.38;;;1.05;;
23628;SDS011;11991;57.150;-2.134;2023-04-03T07:20:13;3.42;;;1.00;;
23628;SDS011;11991;57.150;-2.134;2023-04-03T07:22:41;1.50;;;0.82;;
23628;SDS011;11991;57.150;-2.134;2023-04-03T07:25:08;3.20;;;1.10;;
23628;SDS011;11991;57.150;-2.134;2023-04-03T07:27:37;3.05;;;1.30;;
23628;SDS011;11991;57.150;-2.134;2023-04-03T07:30:04;2.72;;;0.93;;
23628;SDS011;11991;57.150;-2.134;2023-04-03T07:32:33;1.35;;;1.02;;
23628;SDS011;11991;57.150;-2.134;2023-04-03T07:35:00;1.92;;;1.30;;
23628;SDS011;11991;57.150;-2.134;2023-04-03T07:37:29;1.83;;;0.80;;
23628;SDS011;11991;57.150;-2.134;2023-04-03T07:39:56;1.75;;;1.05;;
23628;SDS011;11991;57.150;-2.134;2023-04-03T07:42:25;0.90;;;0.80;;
23628;SDS011;11991;57.150;-2.134;2023-04-03T07:44:55;2.95;;;1.27;;
23628;SDS011;11991;57.150;-2.134;2023-04-03T07:47:23;2.05;;;1.17;;
23628;SDS011;11991;57.150;-2.134;2023-04-03T07:49:50;1.95;;;1.35;;
23628;SDS011;11991;57.150;-2.134;2023-04-03T07:52:17;1.23;;;1.00;;
23628;SDS011;11991;57.150;-2.134;2023-04-03T07:54:44;1.77;;;1.10;;
23628;SDS011;11991;57.150;-2.134;2023-04-03T07:57:11;3.40;;;0.93;;
23628;SDS011;11991;57.150;-2.134;2023-04-03T07:59:38;1.45;;;1.23;;
23628;SDS011;11991;57.150;-2.134;2023-04-03T08:02:08;2.03;;;1.08;;
23628;SDS011;11991;57.150;-2.134;2023-04-03T08:04:36;3.22;;;0.90;;
23628;SDS011;11991;57.150;-2.134;2023-04-03T08:07:04;1.95;;;1.00;;
23628;SDS011;11991;57.150;-2.134;2023-04-03T08:09:31;1.73;;;1.05;;
23628;SDS011;11991;57.150;-2.134;2023-04-03T08:11:59;1.55;;;1.00;;
23628;SDS011;11991;57.150;-2.134;2023-04-03T08:14:26;1.48;;;1.00;;
23628;SDS011;11991;57.150;-2.134;2023-04-03T08:16:53;2.50;;;1.23;;
23628;SDS011;11991;57.150;-2.134;2023-04-03T08:19:20;2.63;;;1.08;;
23628;SDS011;11991;57.150;-2.134;2023-04-03T08:21:53;2.38;;;1.20;;
23628;SDS011;11991;57.150;-2.134;2023-04-03T08:24:21;1.70;;;0.90;;
23628;SDS011;11991;57.150;-2.134;2023-04-03T08:26:49;3.05;;;1.40;;
23628;SDS011;11991;57.150;-2.134;2023-04-03T08:29:16;2.17;;;1.17;;
23628;SDS011;11991;57.150;-2.134;2023-04-03T08:31:43;1.48;;;1.23;;
23628;SDS011;11991;57.150;-2.134;2023-04-03T08:34:11;2.25;;;1.45;;
23628;SDS011;11991;57.150;-2.134;2023-04-03T08:36:39;3.55;;;1.40;;
23628;SDS011;11991;57.150;-2.134;2023-04-03T08:39:06;3.80;;;1.58;;
23628;SDS011;11991;57.150;-2.134;2023-04-03T08:44:21;2.53;;;1.30;;
23628;SDS011;11991;57.150;-2.134;2023-04-03T08:52:17;5.53;;;1.55;;
23628;SDS011;11991;57.150;-2.134;2023-04-03T08:54:56;4.85;;;1.83;;
23628;SDS011;11991;57.150;-2.134;2023-04-03T08:57:31;2.97;;;1.67;;
23628;SDS011;11991;57.150;-2.134;2023-04-03T09:00:06;2.28;;;1.05;;
23628;SDS011;11991;57.150;-2.134;2023-04-03T09:02:47;1.48;;;1.05;;
23628;SDS011;11991;57.150;-2.134;2023-04-03T09:05:20;2.88;;;1.25;;
23628;SDS011;11991;57.150;-2.134;2023-04-03T09:11:18;2.22;;;1.10;;
23628;SDS011;11991;57.150;-2.134;2023-04-03T09:20:10;2.60;;;1.40;;
23628;SDS011;11991;57.150;-2.134;2023-04-03T09:22:48;1.58;;;1.05;;
23628;SDS011;11991;57.150;-2.134;2023-04-03T09:27:56;3.30;;;1.35;;
23628;SDS011;11991;57.150;-2.134;2023-04-03T09:30:24;2.28;;;1.27;;
23628;SDS011;11991;57.150;-2.134;2023-04-03T09:32:53;2.35;;;1.05;;
23628;SDS011;11991;57.150;-2.134;2023-04-03T09:35:24;3.00;;;1.38;;
23628;SDS011;11991;57.150;-2.134;2023-04-03T09:40:42;2.58;;;1.50;;
23628;SDS011;11991;57.150;-2.134;2023-04-03T09:43:37;2.95;;;1.60;;
23628;SDS011;11991;57.150;-2.134;2023-04-03T09:48:58;1.15;;;0.93;;
23628;SDS011;11991;57.150;-2.134;2023-04-03T09:51:35;4.60;;;1.70;;
23628;SDS011;11991;57.150;-2.134;2023-04-03T09:54:46;3.13;;;1.40;;
23628;SDS011;11991;57.150;-2.134;2023-04-03T09:56:56;3.33;;;1.33;;
23628;SDS011;11991;57.150;-2.134;2023-04-03T09:59:27;3.80;;;1.38;;
23628;SDS011;11991;57.150;-2.134;2023-04-03T10:02:00;1.35;;;1.13;;
23628;SDS011;11991;57.150;-2.134;2023-04-03T10:04:37;4.00;;;1.20;;
23628;SDS011;11991;57.150;-2.134;2023-04-03T10:07:27;5.65;;;2.17;;
23628;SDS011;11991;57.150;-2.134;2023-04-03T10:09:57;2.17;;;1.27;;
23628;SDS011;11991;57.150;-2.134;2023-04-03T10:12:28;3.45;;;1.30;;
23628;SDS011;11991;57.150;-2.134;2023-04-03T10:14:57;4.47;;;1.80;;
23628;SDS011;11991;57.150;-2.134;2023-04-03T10:20:07;4.22;;;1.58;;
23628;SDS011;11991;57.150;-2.134;2023-04-03T10:34:12;6.10;;;2.15;;
23628;SDS011;11991;57.150;-2.134;2023-04-03T10:36:57;3.38;;;1.33;;
23628;SDS011;11991;57.150;-2.134;2023-04-03T10:39:52;2.95;;;1.50;;
23628;SDS011;11991;57.150;-2.134;2023-04-03T10:42:44;3.63;;;1.50;;
23628;SDS011;11991;57.150;-2.134;2023-04-03T11:02:27;2.42;;;1.30;;
23628;SDS011;11991;57.150;-2.134;2023-04-03T11:05:02;3.08;;;1.30;;
23628;SDS011;11991;57.150;-2.134;2023-04-03T11:07:40;2.42;;;1.38;;
23628;SDS011;11991;57.150;-2.134;2023-04-03T11:10:35;3.35;;;1.50;;
23628;SDS011;11991;57.150;-2.134;2023-04-03T11:13:15;6.60;;;2.03;;
23628;SDS011;11991;57.150;-2.134;2023-04-03T11:15:49;3.03;;;2.00;;
23628;SDS011;11991;57.150;-2.134;2023-04-03T11:18:25;4.70;;;1.95;;
23628;SDS011;11991;57.150;-2.134;2023-04-03T11:21:07;3.28;;;1.48;;
23628;SDS011;11991;57.150;-2.134;2023-04-03T11:23:41;3.47;;;1.60;;
23628;SDS011;11991;57.150;-2.134;2023-04-03T11:26:19;2.97;;;1.55;;
23628;SDS011;11991;57.150;-2.134;2023-04-03T11:28:52;4.35;;;1.58;;
23628;SDS011;11991;57.150;-2.134;2023-04-03T11:34:17;3.85;;;1.85;;
23628;SDS011;11991;57.150;-2.134;2023-04-03T11:36:49;2.35;;;1.58;;
23628;SDS011;11991;57.150;-2.134;2023-04-03T11:39:31;5.22;;;2.17;;
23628;SDS011;11991;57.150;-2.134;2023-04-03T11:42:14;9.43;;;2.25;;
23628;SDS011;11991;57.150;-2.134;2023-04-03T11:45:17;3.20;;;1.52;;
23628;SDS011;11991;57.150;-2.134;2023-04-03T11:47:54;3.75;;;1.25;;
23628;SDS011;11991;57.150;-2.134;2023-04-03T12:08:24;2.25;;;1.30;;
23628;SDS011;11991;57.150;-2.134;2023-04-03T12:26:44;1.60;;;1.02;;
23628;SDS011;11991;57.150;-2.134;2023-04-03T12:29:21;1.90;;;1.48;;
23628;SDS011;11991;57.150;-2.134;2023-04-03T12:34:43;6.00;;;2.45;;
23628;SDS011;11991;57.150;-2.134;2023-04-03T12:46:18;4.72;;;1.75;;
23628;SDS011;11991;57.150;-2.134;2023-04-03T12:48:49;3.38;;;1.50;;
23628;SDS011;11991;57.150;-2.134;2023-04-03T12:54:03;3.88;;;1.55;;
23628;SDS011;11991;57.150;-2.134;2023-04-03T12:56:39;2.80;;;1.38;;
23628;SDS011;11991;57.150;-2.134;2023-04-03T12:59:14;2.13;;;1.20;;
23628;SDS011;11991;57.150;-2.134;2023-04-03T13:01:56;3.00;;;1.55;;
23628;SDS011;11991;57.150;-2.134;2023-04-03T13:04:30;2.15;;;1.20;;
23628;SDS011;11991;57.150;-2.134;2023-04-03T13:06:58;4.88;;;1.25;;
23628;SDS011;11991;57.150;-2.134;2023-04-03T13:09:27;3.40;;;1.50;;
23628;SDS011;11991;57.150;-2.134;2023-04-03T13:14:29;2.55;;;0.90;;
23628;SDS011;11991;57.150;-2.134;2023-04-03T13:16:58;1.48;;;1.00;;
23628;SDS011;11991;57.150;-2.134;2023-04-03T13:19:38;1.20;;;0.95;;
23628;SDS011;11991;57.150;-2.134;2023-04-03T13:22:11;2.70;;;1.20;;
23628;SDS011;11991;57.150;-2.134;2023-04-03T13:24:46;4.53;;;1.80;;
23628;SDS011;11991;57.150;-2.134;2023-04-03T13:27:16;2.47;;;1.50;;
23628;SDS011;11991;57.150;-2.134;2023-04-03T13:29:48;3.47;;;1.40;;
23628;SDS011;11991;57.150;-2.134;2023-04-03T13:32:24;4.57;;;1.85;;
23628;SDS011;11991;57.150;-2.134;2023-04-03T13:34:53;4.07;;;1.73;;
23628;SDS011;11991;57.150;-2.134;2023-04-03T13:37:27;3.97;;;1.65;;
23628;SDS011;11991;57.150;-2.134;2023-04-03T13:42:34;5.45;;;1.65;;
23628;SDS011;11991;57.150;-2.134;2023-04-03T13:47:47;2.65;;;1.60;;
23628;SDS011;11991;57.150;-2.134;2023-04-03T13:52:52;3.63;;;1.55;;
23628;SDS011;11991;57.150;-2.134;2023-04-03T13:55:50;3.70;;;1.95;;
23628;SDS011;11991;57.150;-2.134;2023-04-03T13:58:25;2.38;;;1.10;;
23628;SDS011;11991;57.150;-2.134;2023-04-03T14:00:56;2.80;;;1.23;;
23628;SDS011;11991;57.150;-2.134;2023-04-03T14:03:51;1.25;;;1.10;;
23628;SDS011;11991;57.150;-2.134;2023-04-03T14:06:24;3.22;;;1.85;;
23628;SDS011;11991;57.150;-2.134;2023-04-03T14:08:52;5.10;;;1.65;;
23628;SDS011;11991;57.150;-2.134;2023-04-03T14:11:20;2.17;;;1.02;;
23628;SDS011;11991;57.150;-2.134;2023-04-03T14:13:50;4.22;;;1.45;;
23628;SDS011;11991;57.150;-2.134;2023-04-03T14:16:19;5.22;;;1.05;;
23628;SDS011;11991;57.150;-2.134;2023-04-03T14:18:50;4.47;;;0.93;;
23628;SDS011;11991;57.150;-2.134;2023-04-03T14:21:18;3.22;;;1.40;;
23628;SDS011;11991;57.150;-2.134;2023-04-03T14:23:46;2.80;;;1.10;;
23628;SDS011;11991;57.150;-2.134;2023-04-03T14:26:15;3.50;;;1.30;;
23628;SDS011;11991;57.150;-2.134;2023-04-03T14:28:45;6.15;;;1.50;;
23628;SDS011;11991;57.150;-2.134;2023-04-03T14:31:13;5.70;;;1.15;;
23628;SDS011;11991;57.150;-2.134;2023-04-03T14:33:42;1.60;;;0.88;;
23628;SDS011;11991;57.150;-2.134;2023-04-03T14:36:13;1.38;;;0.88;;
23628;SDS011;11991;57.150;-2.134;2023-04-03T14:38:42;2.33;;;0.70;;
23628;SDS011;11991;57.150;-2.134;2023-04-03T14:41:14;6.25;;;1.25;;
23628;SDS011;11991;57.150;-2.134;2023-04-03T14:43:44;3.67;;;1.35;;
23628;SDS011;11991;57.150;-2.134;2023-04-03T14:46:13;3.05;;;1.15;;
23628;SDS011;11991;57.150;-2.134;2023-04-03T14:48:46;1.88;;;1.02;;
23628;SDS011;11991;57.150;-2.134;2023-04-03T14:51:14;5.80;;;1.40;;
23628;SDS011;11991;57.150;-2.134;2023-04-03T14:53:42;1.83;;;0.98;;
23628;SDS011;11991;57.150;-2.134;2023-04-03T14:56:33;2.58;;;1.05;;
23628;SDS011;11991;57.150;-2.134;2023-04-03T14:58:59;4.30;;;1.17;;
23628;SDS011;11991;57.150;-2.134;2023-04-03T15:01:30;2.35;;;1.05;;
23628;SDS011;11991;57.150;-2.134;2023-04-03T15:03:57;3.60;;;1.10;;
23628;SDS011;11991;57.150;-2.134;2023-04-03T15:06:24;3.70;;;1.20;;
23628;SDS011;11991;57.150;-2.134;2023-04-03T15:08:52;3.15;;;1.13;;
23628;SDS011;11991;57.150;-2.134;2023-04-03T15:11:19;4.07;;;1.00;;
23628;SDS011;11991;57.150;-2.134;2023-04-03T15:13:47;1.73;;;0.80;;
23628;SDS011;11991;57.150;-2.134;2023-04-03T15:16:18;1.92;;;1.00;;
23628;SDS011;11991;57.150;-2.134;2023-04-03T15:18:46;2.85;;;1.13;;
23628;SDS011;11991;57.150;-2.134;2023-04-03T15:21:15;3.45;;;1.10;;
23628;SDS011;11991;57.150;-2.134;2023-04-03T15:23:43;1.17;;;0.90;;
23628;SDS011;11991;57.150;-2.134;2023-04-03T15:26:10;1.65;;;0.90;;
23628;SDS011;11991;57.150;-2.134;2023-04-03T15:28:39;3.67;;;1.10;;
23628;SDS011;11991;57.150;-2.134;2023-04-03T15:31:08;0.75;;;0.68;;
23628;SDS011;11991;57.150;-2.134;2023-04-03T15:33:36;3.67;;;1.45;;
23628;SDS011;11991;57.150;-2.134;2023-04-03T15:36:04;1.52;;;0.80;;
23628;SDS011;11991;57.150;-2.134;2023-04-03T15:38:37;1.77;;;0.80;;
23628;SDS011;11991;57.150;-2.134;2023-04-03T15:41:04;3.03;;;0.90;;
23628;SDS011;11991;57.150;-2.134;2023-04-03T15:43:32;2.75;;;1.10;;
23628;SDS011;11991;57.150;-2.134;2023-04-03T15:46:01;4.13;;;1.15;;
23628;SDS011;11991;57.150;-2.134;2023-04-03T15:48:29;1.13;;;0.70;;
23628;SDS011;11991;57.150;-2.134;2023-04-03T15:50:56;2.33;;;1.20;;
23628;SDS011;11991;57.150;-2.134;2023-04-03T15:53:24;2.53;;;1.20;;
23628;SDS011;11991;57.150;-2.134;2023-04-03T15:55:52;3.25;;;1.50;;
23628;SDS011;11991;57.150;-2.134;2023-04-03T15:58:19;3.85;;;0.98;;
23628;SDS011;11991;57.150;-2.134;2023-04-03T16:00:46;2.10;;;1.13;;
23628;SDS011;11991;57.150;-2.134;2023-04-03T16:03:18;2.38;;;1.13;;
23628;SDS011;11991;57.150;-2.134;2023-04-03T16:05:46;2.03;;;1.00;;
23628;SDS011;11991;57.150;-2.134;2023-04-03T16:08:14;3.42;;;0.80;;
23628;SDS011;11991;57.150;-2.134;2023-04-03T16:10:42;1.98;;;0.95;;
23628;SDS011;11991;57.150;-2.134;2023-04-03T16:13:11;2.92;;;0.77;;
23628;SDS011;11991;57.150;-2.134;2023-04-03T16:15:39;5.82;;;1.33;;
23628;SDS011;11991;57.150;-2.134;2023-04-03T16:18:07;3.78;;;1.27;;
23628;SDS011;11991;57.150;-2.134;2023-04-03T16:20:34;3.60;;;1.02;;
23628;SDS011;11991;57.150;-2.134;2023-04-03T16:23:03;2.40;;;0.90;;
23628;SDS011;11991;57.150;-2.134;2023-04-03T16:25:30;1.75;;;0.85;;
23628;SDS011;11991;57.150;-2.134;2023-04-03T16:27:58;2.83;;;1.08;;
23628;SDS011;11991;57.150;-2.134;2023-04-03T16:30:26;4.90;;;1.33;;
23628;SDS011;11991;57.150;-2.134;2023-04-03T16:32:53;6.57;;;1.38;;
23628;SDS011;11991;57.150;-2.134;2023-04-03T16:35:22;2.95;;;1.00;;
23628;SDS011;11991;57.150;-2.134;2023-04-03T16:37:49;3.60;;;1.00;;
23628;SDS011;11991;57.150;-2.134;2023-04-03T16:40:17;5.55;;;1.33;;
23628;SDS011;11991;57.150;-2.134;2023-04-03T16:42:44;2.58;;;1.35;;
23628;SDS011;11991;57.150;-2.134;2023-04-03T16:45:15;2.65;;;1.08;;
23628;SDS011;11991;57.150;-2.134;2023-04-03T16:47:43;2.17;;;1.10;;
23628;SDS011;11991;57.150;-2.134;2023-04-03T16:50:25;4.20;;;1.17;;
23628;SDS011;11991;57.150;-2.134;2023-04-03T16:52:52;2.13;;;0.80;;